sensor_id;sensor_type;location;lat;lon;timestamp;P1;durP1;ratioP1;P2;durP2;ratioP2
56122;SDS011;42426;46.104;19.656;2022-10-04T00:03:08;5.00;;;3.13;;
56122;SDS011;42426;46.104;19.656;2022-10-04T00:05:40;6.00;;;3.80;;
56122;SDS011;42426;46.104;19.656;2022-10-04T00:08:41;7.22;;;3.92;;
56122;SDS011;42426;46.104;19.656;2022-10-04T00:11:12;8.20;;;4.13;;
56122;SDS011;42426;46.104;19.656;2022-10-04T00:13:45;6.93;;;3.22;;
56122;SDS011;42426;46.104;19.656;2022-10-04T00:16:18;5.30;;;3.47;;
56122;SDS011;42426;46.104;19.656;2022-10-04T00:24:24;6.15;;;3.80;;
56122;SDS011;42426;46.104;19.656;2022-10-04T00:43:19;5.65;;;3.50;;
56122;SDS011;42426;46.104;19.656;2022-10-04T00:46:10;6.47;;;3.40;;
56122;SDS011;42426;46.104;19.656;2022-10-04T00:51:37;7.07;;;3.45;;
56122;SDS011;42426;46.104;19.656;2022-10-04T00:59:31;8.02;;;4.05;;
56122;SDS011;42426;46.104;19.656;2022-10-04T01:02:02;5.03;;;3.60;;
56122;SDS011;42426;46.104;19.656;2022-10-04T01:04:57;6.70;;;4.05;;
56122;SDS011;42426;46.104;19.656;2022-10-04T01:07:34;7.65;;;3.55;;
56122;SDS011;42426;46.104;19.656;2022-10-04T01:10:07;9.67;;;3.90;;
56122;SDS011;42426;46.104;19.656;2022-10-04T01:12:43;5.85;;;3.78;;
56122;SDS011;42426;46.104;19.656;2022-10-04T01:15:30;6.00;;;3.50;;
56122;SDS011;42426;46.104;19.656;2022-10-04T01:18:12;9.43;;;6.65;;
56122;SDS011;42426;46.104;19.656;2022-10-04T01:20:50;6.78;;;3.85;;
56122;SDS011;42426;46.104;19.656;2022-10-04T01:23:33;6.07;;;3.47;;
56122;SDS011;42426;46.104;19.656;2022-10-04T01:26:02;4.40;;;3.33;;
56122;SDS011;42426;46.104;19.656;2022-10-04T01:28:29;7.18;;;3.63;;
56122;SDS011;42426;46.104;19.656;2022-10-04T01:30:58;5.25;;;3.97;;
56122;SDS011;42426;46.104;19.656;2022-10-04T01:33:24;6.40;;;3.67;;
56122;SDS011;42426;46.104;19.656;2022-10-04T01:35:50;5.35;;;3.22;;
56122;SDS011;42426;46.104;19.656;2022-10-04T01:38:17;7.75;;;4.20;;
56122;SDS011;42426;46.104;19.656;2022-10-04T01:40:48;4.93;;;3.88;;
56122;SDS011;42426;46.104;19.656;2022-10-04T01:43:20;5.82;;;3.88;;
56122;SDS011;42426;46.104;19.656;2022-10-04T01:45:59;6.65;;;3.53;;
56122;SDS011;42426;46.104;19.656;2022-10-04T01:48:33;7.07;;;4.18;;
56122;SDS011;42426;46.104;19.656;2022-10-04T01:51:05;5.20;;;3.67;;
56122;SDS011;42426;46.104;19.656;2022-10-04T01:53:46;5.97;;;3.60;;
56122;SDS011;42426;46.104;19.656;2022-10-04T01:56:22;9.57;;;4.03;;
56122;SDS011;42426;46.104;19.656;2022-10-04T01:58:57;6.35;;;4.10;;
56122;SDS011;42426;46.104;19.656;2022-10-04T02:01:31;12.45;;;4.93;;
56122;SDS011;42426;46.104;19.656;2022-10-04T02:04:22;7.03;;;4.68;;
56122;SDS011;42426;46.104;19.656;2022-10-04T02:06:55;11.75;;;3.85;;
56122;SDS011;42426;46.104;19.656;2022-10-04T02:09:26;5.35;;;3.70;;
56122;SDS011;42426;46.104;19.656;2022-10-04T02:11:58;8.45;;;4.03;;
56122;SDS011;42426;46.104;19.656;2022-10-04T02:14:29;8.38;;;3.90;;
56122;SDS011;42426;46.104;19.656;2022-10-04T02:16:57;5.40;;;3.70;;
56122;SDS011;42426;46.104;19.656;2022-10-04T02:19:30;7.03;;;4.30;;
56122;SDS011;42426;46.104;19.656;2022-10-04T02:22:00;13.25;;;4.93;;
56122;SDS011;42426;46.104;19.656;2022-10-04T02:24:28;5.85;;;4.05;;
56122;SDS011;42426;46.104;19.656;2022-10-04T02:26:57;7.50;;;3.92;;
56122;SDS011;42426;46.104;19.656;2022-10-04T02:29:23;7.63;;;3.53;;
56122;SDS011;42426;46.104;19.656;2022-10-04T02:31:51;7.82;;;3.72;;
56122;SDS011;42426;46.104;19.656;2022-10-04T02:34:35;9.18;;;3.75;;
56122;SDS011;42426;46.104;19.656;2022-10-04T02:37:02;5.43;;;3.53;;
56122;SDS011;42426;46.104;19.656;2022-10-04T02:39:43;8.90;;;3.75;;
56122;SDS011;42426;46.104;19.656;2022-10-04T02:42:36;5.30;;;3.22;;
56122;SDS011;42426;46.104;19.656;2022-10-04T02:45:31;5.78;;;3.75;;
56122;SDS011;42426;46.104;19.656;2022-10-04T02:48:20;11.65;;;4.00;;
56122;SDS011;42426;46.104;19.656;2022-10-04T02:50:52;7.93;;;3.50;;
56122;SDS011;42426;46.104;19.656;2022-10-04T02:53:25;4.78;;;3.33;;
56122;SDS011;42426;46.104;19.656;2022-10-04T02:56:02;7.00;;;3.63;;
56122;SDS011;42426;46.104;19.656;2022-10-04T02:58:28;6.68;;;3.42;;
56122;SDS011;42426;46.104;19.656;2022-10-04T03:00:56;5.65;;;4.63;;
56122;SDS011;42426;46.104;19.656;2022-10-04T03:03:27;6.57;;;3.92;;
56122;SDS011;42426;46.104;19.656;2022-10-04T03:08:30;5.97;;;3.75;;
56122;SDS011;42426;46.104;19.656;2022-10-04T03:11:00;5.78;;;3.90;;
56122;SDS011;42426;46.104;19.656;2022-10-04T03:13:28;13.07;;;4.30;;
56122;SDS011;42426;46.104;19.656;2022-10-04T03:15:55;6.07;;;3.83;;
56122;SDS011;42426;46.104;19.656;2022-10-04T03:18:21;7.47;;;4.53;;
56122;SDS011;42426;46.104;19.656;2022-10-04T03:20:47;6.57;;;4.53;;
56122;SDS011;42426;46.104;19.656;2022-10-04T03:23:14;6.53;;;4.45;;
56122;SDS011;42426;46.104;19.656;2022-10-04T03:25:56;9.77;;;4.32;;
56122;SDS011;42426;46.104;19.656;2022-10-04T03:28:28;5.20;;;3.72;;
56122;SDS011;42426;46.104;19.656;2022-10-04T03:30:54;6.22;;;3.45;;
56122;SDS011;42426;46.104;19.656;2022-10-04T03:33:22;6.15;;;4.00;;
56122;SDS011;42426;46.104;19.656;2022-10-04T03:35:54;7.18;;;4.10;;
56122;SDS011;42426;46.104;19.656;2022-10-04T03:38:22;7.68;;;4.22;;
56122;SDS011;42426;46.104;19.656;2022-10-04T03:40:52;5.15;;;4.03;;
56122;SDS011;42426;46.104;19.656;2022-10-04T03:43:25;6.38;;;4.00;;
56122;SDS011;42426;46.104;19.656;2022-10-04T03:45:55;7.18;;;4.20;;
56122;SDS011;42426;46.104;19.656;2022-10-04T03:48:27;7.03;;;3.88;;
56122;SDS011;42426;46.104;19.656;2022-10-04T03:50:56;6.00;;;3.92;;
56122;SDS011;42426;46.104;19.656;2022-10-04T03:56:28;5.50;;;4.57;;
56122;SDS011;42426;46.104;19.656;2022-10-04T03:58:57;6.88;;;4.25;;
56122;SDS011;42426;46.104;19.656;2022-10-04T04:01:39;7.43;;;4.38;;
56122;SDS011;42426;46.104;19.656;2022-10-04T04:07:02;8.15;;;4.50;;
56122;SDS011;42426;46.104;19.656;2022-10-04T04:09:47;6.47;;;3.70;;
56122;SDS011;42426;46.104;19.656;2022-10-04T04:14:48;8.55;;;3.80;;
56122;SDS011;42426;46.104;19.656;2022-10-04T04:19:53;6.65;;;4.15;;
56122;SDS011;42426;46.104;19.656;2022-10-04T04:22:25;6.63;;;4.30;;
56122;SDS011;42426;46.104;19.656;2022-10-04T04:24:56;10.57;;;4.68;;
56122;SDS011;42426;46.104;19.656;2022-10-04T04:27:28;9.15;;;4.25;;
56122;SDS011;42426;46.104;19.656;2022-10-04T04:30:00;5.57;;;4.13;;
56122;SDS011;42426;46.104;19.656;2022-10-04T04:32:39;5.78;;;4.10;;
56122;SDS011;42426;46.104;19.656;2022-10-04T04:35:21;7.28;;;4.13;;
56122;SDS011;42426;46.104;19.656;2022-10-04T04:40:47;7.15;;;5.38;;
56122;SDS011;42426;46.104;19.656;2022-10-04T04:43:18;7.32;;;4.05;;
56122;SDS011;42426;46.104;19.656;2022-10-04T04:45:44;6.53;;;4.75;;
56122;SDS011;42426;46.104;19.656;2022-10-04T04:48:16;6.93;;;4.68;;
56122;SDS011;42426;46.104;19.656;2022-10-04T04:50:51;12.70;;;6.47;;
56122;SDS011;42426;46.104;19.656;2022-10-04T04:53:25;12.07;;;5.15;;
56122;SDS011;42426;46.104;19.656;2022-10-04T04:55:57;8.77;;;4.95;;
56122;SDS011;42426;46.104;19.656;2022-10-04T04:58:35;8.05;;;4.82;;
56122;SDS011;42426;46.104;19.656;2022-10-04T05:01:07;8.60;;;4.10;;
56122;SDS011;42426;46.104;19.656;2022-10-04T05:03:59;8.55;;;4.90;;
56122;SDS011;42426;46.104;19.656;2022-10-04T05:06:41;10.60;;;5.28;;
56122;SDS011;42426;46.104;19.656;2022-10-04T05:09:20;8.82;;;5.32;;
56122;SDS011;42426;46.104;19.656;2022-10-04T05:11:56;10.18;;;4.57;;
56122;SDS011;42426;46.104;19.656;2022-10-04T05:14:36;9.23;;;5.05;;
56122;SDS011;42426;46.104;19.656;2022-10-04T05:17:03;7.55;;;4.47;;
56122;SDS011;42426;46.104;19.656;2022-10-04T05:19:34;9.38;;;4.55;;
56122;SDS011;42426;46.104;19.656;2022-10-04T05:22:02;10.50;;;5.28;;
56122;SDS011;42426;46.104;19.656;2022-10-04T05:24:36;10.15;;;5.32;;
56122;SDS011;42426;46.104;19.656;2022-10-04T05:27:18;8.23;;;4.70;;
56122;SDS011;42426;46.104;19.656;2022-10-04T05:30:43;8.25;;;4.22;;
56122;SDS011;42426;46.104;19.656;2022-10-04T05:35:37;7.35;;;3.90;;
56122;SDS011;42426;46.104;19.656;2022-10-04T05:41:16;8.18;;;5.18;;
56122;SDS011;42426;46.104;19.656;2022-10-04T05:43:50;9.70;;;5.63;;
56122;SDS011;42426;46.104;19.656;2022-10-04T05:46:19;8.23;;;5.38;;
56122;SDS011;42426;46.104;19.656;2022-10-04T05:48:52;10.82;;;5.28;;
56122;SDS011;42426;46.104;19.656;2022-10-04T05:51:54;6.80;;;4.13;;
56122;SDS011;42426;46.104;19.656;2022-10-04T05:54:34;6.60;;;4.70;;
56122;SDS011;42426;46.104;19.656;2022-10-04T06:03:28;5.15;;;3.53;;
56122;SDS011;42426;46.104;19.656;2022-10-04T06:05:27;6.00;;;4.07;;
56122;SDS011;42426;46.104;19.656;2022-10-04T06:08:13;8.70;;;4.07;;
56122;SDS011;42426;46.104;19.656;2022-10-04T06:24:20;7.93;;;3.67;;
56122;SDS011;42426;46.104;19.656;2022-10-04T06:27:07;7.88;;;3.95;;
56122;SDS011;42426;46.104;19.656;2022-10-04T06:29:39;7.03;;;3.05;;
56122;SDS011;42426;46.104;19.656;2022-10-04T06:35:13;6.45;;;3.35;;
56122;SDS011;42426;46.104;19.656;2022-10-04T07:12:33;6.15;;;4.10;;
56122;SDS011;42426;46.104;19.656;2022-10-04T07:17:40;9.02;;;4.57;;
56122;SDS011;42426;46.104;19.656;2022-10-04T07:20:16;6.22;;;3.20;;
56122;SDS011;42426;46.104;19.656;2022-10-04T07:22:56;5.22;;;3.25;;
56122;SDS011;42426;46.104;19.656;2022-10-04T07:25:31;6.30;;;3.50;;
56122;SDS011;42426;46.104;19.656;2022-10-04T07:28:02;6.60;;;3.60;;
56122;SDS011;42426;46.104;19.656;2022-10-04T07:33:24;6.28;;;3.28;;
56122;SDS011;42426;46.104;19.656;2022-10-04T07:36:04;4.80;;;3.65;;
56122;SDS011;42426;46.104;19.656;2022-10-04T07:38:31;5.30;;;3.35;;
56122;SDS011;42426;46.104;19.656;2022-10-04T07:41:04;9.80;;;5.32;;
56122;SDS011;42426;46.104;19.656;2022-10-04T07:43:40;4.60;;;2.73;;
56122;SDS011;42426;46.104;19.656;2022-10-04T07:49:01;5.45;;;3.38;;
56122;SDS011;42426;46.104;19.656;2022-10-04T07:56:54;6.63;;;3.53;;
56122;SDS011;42426;46.104;19.656;2022-10-04T07:59:32;8.13;;;4.65;;
56122;SDS011;42426;46.104;19.656;2022-10-04T08:02:23;7.38;;;2.97;;
56122;SDS011;42426;46.104;19.656;2022-10-04T08:07:31;7.07;;;3.90;;
56122;SDS011;42426;46.104;19.656;2022-10-04T08:10:16;7.03;;;3.83;;
56122;SDS011;42426;46.104;19.656;2022-10-04T08:13:49;4.65;;;3.20;;
56122;SDS011;42426;46.104;19.656;2022-10-04T08:15:42;10.00;;;3.60;;
56122;SDS011;42426;46.104;19.656;2022-10-04T08:21:07;8.23;;;3.83;;
56122;SDS011;42426;46.104;19.656;2022-10-04T08:23:39;7.22;;;3.40;;
56122;SDS011;42426;46.104;19.656;2022-10-04T08:26:37;5.03;;;3.25;;
56122;SDS011;42426;46.104;19.656;2022-10-04T08:40:09;11.30;;;4.57;;
56122;SDS011;42426;46.104;19.656;2022-10-04T08:43:38;9.43;;;4.32;;
56122;SDS011;42426;46.104;19.656;2022-10-04T09:08:28;4.75;;;3.50;;
56122;SDS011;42426;46.104;19.656;2022-10-04T09:11:25;5.82;;;3.65;;
56122;SDS011;42426;46.104;19.656;2022-10-04T09:33:03;3.05;;;2.65;;
56122;SDS011;42426;46.104;19.656;2022-10-04T09:41:06;6.95;;;3.42;;
56122;SDS011;42426;46.104;19.656;2022-10-04T09:43:54;7.97;;;3.50;;
56122;SDS011;42426;46.104;19.656;2022-10-04T09:49:41;11.85;;;4.03;;
56122;SDS011;42426;46.104;19.656;2022-10-04T09:52:46;6.88;;;3.17;;
56122;SDS011;42426;46.104;19.656;2022-10-04T09:55:41;6.75;;;3.10;;
56122;SDS011;42426;46.104;19.656;2022-10-04T10:38:49;4.55;;;2.95;;
56122;SDS011;42426;46.104;19.656;2022-10-04T10:42:13;4.43;;;3.33;;
56122;SDS011;42426;46.104;19.656;2022-10-04T11:10:32;4.25;;;3.00;;
56122;SDS011;42426;46.104;19.656;2022-10-04T11:23:48;6.57;;;4.72;;
56122;SDS011;42426;46.104;19.656;2022-10-04T11:26:43;10.65;;;4.47;;
56122;SDS011;42426;46.104;19.656;2022-10-04T11:29:26;9.88;;;4.50;;
56122;SDS011;42426;46.104;19.656;2022-10-04T11:33:27;12.18;;;3.45;;
56122;SDS011;42426;46.104;19.656;2022-10-04T11:41:21;4.05;;;2.83;;
56122;SDS011;42426;46.104;19.656;2022-10-04T11:49:27;4.68;;;3.10;;
56122;SDS011;42426;46.104;19.656;2022-10-04T11:52:24;6.15;;;3.47;;
56122;SDS011;42426;46.104;19.656;2022-10-04T12:31:18;5.80;;;4.22;;
56122;SDS011;42426;46.104;19.656;2022-10-04T12:39:21;5.05;;;3.35;;
56122;SDS011;42426;46.104;19.656;2022-10-04T12:50:26;4.28;;;3.30;;
56122;SDS011;42426;46.104;19.656;2022-10-04T13:01:33;5.53;;;3.05;;
56122;SDS011;42426;46.104;19.656;2022-10-04T13:09:49;8.05;;;2.70;;
56122;SDS011;42426;46.104;19.656;2022-10-04T13:20:37;6.70;;;3.40;;
56122;SDS011;42426;46.104;19.656;2022-10-04T13:23:38;6.03;;;4.20;;
56122;SDS011;42426;46.104;19.656;2022-10-04T13:31:23;5.47;;;3.30;;
56122;SDS011;42426;46.104;19.656;2022-10-04T13:38:02;5.72;;;3.28;;
56122;SDS011;42426;46.104;19.656;2022-10-04T13:45:21;4.60;;;3.05;;
56122;SDS011;42426;46.104;19.656;2022-10-04T14:35:34;4.93;;;4.00;;
56122;SDS011;42426;46.104;19.656;2022-10-04T14:50:25;5.93;;;3.95;;
56122;SDS011;42426;46.104;19.656;2022-10-04T14:53:19;6.38;;;3.85;;
56122;SDS011;42426;46.104;19.656;2022-10-04T14:56:16;6.45;;;5.18;;
56122;SDS011;42426;46.104;19.656;2022-10-04T14:59:21;5.43;;;3.72;;
56122;SDS011;42426;46.104;19.656;2022-10-04T15:05:03;10.23;;;5.68;;
56122;SDS011;42426;46.104;19.656;2022-10-04T15:11:10;12.55;;;6.38;;
56122;SDS011;42426;46.104;19.656;2022-10-04T15:13:50;11.13;;;7.25;;
56122;SDS011;42426;46.104;19.656;2022-10-04T15:16:36;10.85;;;5.15;;
56122;SDS011;42426;46.104;19.656;2022-10-04T15:24:46;13.23;;;7.32;;
56122;SDS011;42426;46.104;19.656;2022-10-04T15:32:39;13.65;;;8.23;;
56122;SDS011;42426;46.104;19.656;2022-10-04T15:43:12;14.95;;;11.65;;
56122;SDS011;42426;46.104;19.656;2022-10-04T15:53:28;19.83;;;13.20;;
56122;SDS011;42426;46.104;19.656;2022-10-04T16:09:36;50.90;;;31.98;;
56122;SDS011;42426;46.104;19.656;2022-10-04T16:15:19;61.95;;;37.55;;
56122;SDS011;42426;46.104;19.656;2022-10-04T16:18:07;62.47;;;38.08;;
56122;SDS011;42426;46.104;19.656;2022-10-04T16:23:41;60.85;;;37.65;;
56122;SDS011;42426;46.104;19.656;2022-10-04T16:31:20;79.65;;;48.30;;
56122;SDS011;42426;46.104;19.656;2022-10-04T16:33:52;72.18;;;44.35;;
56122;SDS011;42426;46.104;19.656;2022-10-04T16:39:30;68.90;;;42.10;;
56122;SDS011;42426;46.104;19.656;2022-10-04T16:42:21;72.40;;;40.03;;
56122;SDS011;42426;46.104;19.656;2022-10-04T16:50:02;58.90;;;37.60;;
56122;SDS011;42426;46.104;19.656;2022-10-04T16:55:24;43.10;;;30.17;;
56122;SDS011;42426;46.104;19.656;2022-10-04T17:16:56;64.22;;;39.38;;
56122;SDS011;42426;46.104;19.656;2022-10-04T17:19:27;66.93;;;42.15;;
56122;SDS011;42426;46.104;19.656;2022-10-04T17:22:04;66.68;;;41.38;;
56122;SDS011;42426;46.104;19.656;2022-10-04T17:25:03;66.97;;;39.97;;
56122;SDS011;42426;46.104;19.656;2022-10-04T17:27:55;65.63;;;39.53;;
56122;SDS011;42426;46.104;19.656;2022-10-04T17:30:29;70.72;;;42.95;;
56122;SDS011;42426;46.104;19.656;2022-10-04T17:38:24;66.63;;;41.85;;
56122;SDS011;42426;46.104;19.656;2022-10-04T17:44:11;66.53;;;38.92;;
56122;SDS011;42426;46.104;19.656;2022-10-04T17:46:57;65.22;;;39.17;;
56122;SDS011;42426;46.104;19.656;2022-10-04T17:49:41;64.28;;;37.33;;
56122;SDS011;42426;46.104;19.656;2022-10-04T17:52:58;52.80;;;33.72;;
56122;SDS011;42426;46.104;19.656;2022-10-04T17:55:50;52.30;;;33.03;;
56122;SDS011;42426;46.104;19.656;2022-10-04T18:00:47;49.15;;;29.98;;
56122;SDS011;42426;46.104;19.656;2022-10-04T18:05:56;40.03;;;27.20;;
56122;SDS011;42426;46.104;19.656;2022-10-04T18:11:14;43.28;;;26.83;;
56122;SDS011;42426;46.104;19.656;2022-10-04T18:13:55;42.97;;;29.27;;
56122;SDS011;42426;46.104;19.656;2022-10-04T18:18:54;41.63;;;27.00;;
56122;SDS011;42426;46.104;19.656;2022-10-04T18:21:28;43.50;;;26.63;;
56122;SDS011;42426;46.104;19.656;2022-10-04T18:26:24;40.30;;;26.35;;
56122;SDS011;42426;46.104;19.656;2022-10-04T18:28:56;45.03;;;28.80;;
56122;SDS011;42426;46.104;19.656;2022-10-04T18:34:13;57.45;;;31.42;;
56122;SDS011;42426;46.104;19.656;2022-10-04T18:41:43;55.00;;;35.00;;
56122;SDS011;42426;46.104;19.656;2022-10-04T18:44:20;52.25;;;33.83;;
56122;SDS011;42426;46.104;19.656;2022-10-04T18:46:54;61.42;;;36.35;;
56122;SDS011;42426;46.104;19.656;2022-10-04T18:49:22;56.78;;;40.10;;
56122;SDS011;42426;46.104;19.656;2022-10-04T18:51:58;61.95;;;41.90;;
56122;SDS011;42426;46.104;19.656;2022-10-04T19:03:00;89.43;;;57.47;;
56122;SDS011;42426;46.104;19.656;2022-10-04T19:13:50;100.43;;;60.75;;
56122;SDS011;42426;46.104;19.656;2022-10-04T19:22:13;99.28;;;60.55;;
56122;SDS011;42426;46.104;19.656;2022-10-04T19:27:51;92.38;;;54.63;;
56122;SDS011;42426;46.104;19.656;2022-10-04T19:30:25;83.25;;;51.67;;
56122;SDS011;42426;46.104;19.656;2022-10-04T19:35:57;87.85;;;51.70;;
56122;SDS011;42426;46.104;19.656;2022-10-04T19:42:03;88.35;;;52.17;;
56122;SDS011;42426;46.104;19.656;2022-10-04T19:50:15;76.55;;;44.97;;
56122;SDS011;42426;46.104;19.656;2022-10-04T19:55:51;69.90;;;37.40;;
56122;SDS011;42426;46.104;19.656;2022-10-04T19:58:25;60.53;;;33.80;;
56122;SDS011;42426;46.104;19.656;2022-10-04T20:01:04;59.33;;;33.75;;
56122;SDS011;42426;46.104;19.656;2022-10-04T20:03:42;47.05;;;29.83;;
56122;SDS011;42426;46.104;19.656;2022-10-04T20:06:08;50.20;;;30.95;;
56122;SDS011;42426;46.104;19.656;2022-10-04T20:08:53;50.47;;;28.90;;
56122;SDS011;42426;46.104;19.656;2022-10-04T20:11:45;53.22;;;32.17;;
56122;SDS011;42426;46.104;19.656;2022-10-04T20:27:06;42.05;;;25.40;;
56122;SDS011;42426;46.104;19.656;2022-10-04T20:35:01;34.75;;;22.85;;
56122;SDS011;42426;46.104;19.656;2022-10-04T20:38:12;35.08;;;22.30;;
56122;SDS011;42426;46.104;19.656;2022-10-04T20:40:43;35.38;;;21.55;;
56122;SDS011;42426;46.104;19.656;2022-10-04T20:45:45;34.33;;;22.42;;
56122;SDS011;42426;46.104;19.656;2022-10-04T20:48:17;34.47;;;22.45;;
56122;SDS011;42426;46.104;19.656;2022-10-04T20:50:44;35.97;;;23.45;;
56122;SDS011;42426;46.104;19.656;2022-10-04T20:53:21;29.70;;;21.40;;
56122;SDS011;42426;46.104;19.656;2022-10-04T20:55:51;34.58;;;23.95;;
56122;SDS011;42426;46.104;19.656;2022-10-04T20:58:54;30.45;;;21.45;;
56122;SDS011;42426;46.104;19.656;2022-10-04T21:01:23;27.45;;;21.38;;
56122;SDS011;42426;46.104;19.656;2022-10-04T21:06:55;32.67;;;23.50;;
56122;SDS011;42426;46.104;19.656;2022-10-04T21:09:22;36.17;;;25.27;;
56122;SDS011;42426;46.104;19.656;2022-10-04T21:11:50;34.45;;;24.25;;
56122;SDS011;42426;46.104;19.656;2022-10-04T21:14:29;34.72;;;24.33;;
56122;SDS011;42426;46.104;19.656;2022-10-04T21:16:55;39.97;;;25.85;;
56122;SDS011;42426;46.104;19.656;2022-10-04T21:21:56;42.30;;;27.88;;
56122;SDS011;42426;46.104;19.656;2022-10-04T21:24:35;40.88;;;27.90;;
56122;SDS011;42426;46.104;19.656;2022-10-04T21:27:04;39.20;;;27.95;;
56122;SDS011;42426;46.104;19.656;2022-10-04T21:29:32;41.65;;;26.60;;
56122;SDS011;42426;46.104;19.656;2022-10-04T21:31:59;39.38;;;28.00;;
56122;SDS011;42426;46.104;19.656;2022-10-04T21:34:25;40.42;;;27.00;;
56122;SDS011;42426;46.104;19.656;2022-10-04T21:36:52;41.88;;;28.98;;
56122;SDS011;42426;46.104;19.656;2022-10-04T21:39:18;47.20;;;29.35;;
56122;SDS011;42426;46.104;19.656;2022-10-04T21:41:44;45.42;;;28.45;;
56122;SDS011;42426;46.104;19.656;2022-10-04T21:44:10;40.45;;;26.95;;
56122;SDS011;42426;46.104;19.656;2022-10-04T21:46:36;36.20;;;25.77;;
56122;SDS011;42426;46.104;19.656;2022-10-04T21:49:02;37.40;;;25.67;;
56122;SDS011;42426;46.104;19.656;2022-10-04T21:51:28;38.42;;;26.05;;
56122;SDS011;42426;46.104;19.656;2022-10-04T21:54:01;38.63;;;27.65;;
56122;SDS011;42426;46.104;19.656;2022-10-04T21:56:28;47.28;;;31.60;;
56122;SDS011;42426;46.104;19.656;2022-10-04T21:58:54;51.55;;;34.03;;
56122;SDS011;42426;46.104;19.656;2022-10-04T22:01:20;52.50;;;32.70;;
56122;SDS011;42426;46.104;19.656;2022-10-04T22:03:46;53.88;;;32.58;;
56122;SDS011;42426;46.104;19.656;2022-10-04T22:06:12;46.60;;;30.55;;
56122;SDS011;42426;46.104;19.656;2022-10-04T22:08:38;43.28;;;32.63;;
56122;SDS011;42426;46.104;19.656;2022-10-04T22:11:04;51.28;;;32.60;;
56122;SDS011;42426;46.104;19.656;2022-10-04T22:13:30;48.85;;;32.03;;
56122;SDS011;42426;46.104;19.656;2022-10-04T22:15:56;49.92;;;33.08;;
56122;SDS011;42426;46.104;19.656;2022-10-04T22:18:22;43.40;;;31.75;;
56122;SDS011;42426;46.104;19.656;2022-10-04T22:20:47;43.63;;;31.00;;
56122;SDS011;42426;46.104;19.656;2022-10-04T22:23:18;43.88;;;29.50;;
56122;SDS011;42426;46.104;19.656;2022-10-04T22:25:45;39.08;;;28.48;;
56122;SDS011;42426;46.104;19.656;2022-10-04T22:28:17;41.15;;;28.42;;
56122;SDS011;42426;46.104;19.656;2022-10-04T22:30:46;44.22;;;28.02;;
56122;SDS011;42426;46.104;19.656;2022-10-04T22:35:58;34.90;;;26.48;;
56122;SDS011;42426;46.104;19.656;2022-10-04T22:38:56;37.25;;;25.08;;
56122;SDS011;42426;46.104;19.656;2022-10-04T22:41:35;34.20;;;23.67;;
56122;SDS011;42426;46.104;19.656;2022-10-04T22:44:28;32.55;;;21.67;;
56122;SDS011;42426;46.104;19.656;2022-10-04T22:47:03;29.35;;;19.85;;
56122;SDS011;42426;46.104;19.656;2022-10-04T22:49:34;27.70;;;19.67;;
56122;SDS011;42426;46.104;19.656;2022-10-04T22:52:10;32.63;;;20.30;;
56122;SDS011;42426;46.104;19.656;2022-10-04T22:54:43;35.03;;;19.98;;
56122;SDS011;42426;46.104;19.656;2022-10-04T22:57:11;29.65;;;20.15;;
56122;SDS011;42426;46.104;19.656;2022-10-04T22:59:42;37.90;;;22.83;;
56122;SDS011;42426;46.104;19.656;2022-10-04T23:02:14;31.05;;;19.90;;
56122;SDS011;42426;46.104;19.656;2022-10-04T23:04:42;30.92;;;20.38;;
56122;SDS011;42426;46.104;19.656;2022-10-04T23:07:11;27.77;;;18.02;;
56122;SDS011;42426;46.104;19.656;2022-10-04T23:09:37;29.25;;;20.60;;
56122;SDS011;42426;46.104;19.656;2022-10-04T23:12:05;27.20;;;19.25;;
56122;SDS011;42426;46.104;19.656;2022-10-04T23:14:33;32.40;;;20.20;;
56122;SDS011;42426;46.104;19.656;2022-10-04T23:17:01;29.13;;;20.08;;
56122;SDS011;42426;46.104;19.656;2022-10-04T23:19:41;36.58;;;21.83;;
56122;SDS011;42426;46.104;19.656;2022-10-04T23:22:14;30.30;;;20.70;;
56122;SDS011;42426;46.104;19.656;2022-10-04T23:24:42;30.45;;;21.10;;
56122;SDS011;42426;46.104;19.656;2022-10-04T23:27:15;35.83;;;21.27;;
56122;SDS011;42426;46.104;19.656;2022-10-04T23:32:14;37.97;;;21.20;;
56122;SDS011;42426;46.104;19.656;2022-10-04T23:34:41;32.00;;;20.20;;
56122;SDS011;42426;46.104;19.656;2022-10-04T23:39:41;31.05;;;20.73;;
56122;SDS011;42426;46.104;19.656;2022-10-04T23:42:14;24.90;;;18.98;;
56122;SDS011;42426;46.104;19.656;2022-10-04T23:44:43;31.92;;;20.38;;
56122;SDS011;42426;46.104;19.656;2022-10-04T23:47:12;29.88;;;19.30;;
56122;SDS011;42426;46.104;19.656;2022-10-04T23:49:39;35.10;;;21.52;;
56122;SDS011;42426;46.104;19.656;2022-10-04T23:52:13;30.40;;;19.88;;
56122;SDS011;42426;46.104;19.656;2022-10-04T23:54:43;37.97;;;23.13;;
56122;SDS011;42426;46.104;19.656;2022-10-04T23:57:10;31.65;;;21.30;;
56122;SDS011;42426;46.104;19.656;2022-10-04T23:59:44;32.00;;;21.40;;
